Página principal
METAR-TAF:

METAR-TAF

Aeroportos :

Aeroporto Internacional de La Tontouta

Nouméa / La Tontouta, Nova Caledónia

latitude: 22-01S, longitude: 166-13E, altura: 16 m

Observação actual do tempo

O boletim foi feito há 43 minutos, às 12:30 UTC
Vento calmo
Temperatura 19°C
Humidade 83%
Pressão 1012 hPa
Visibilidade 10 km ou mais
Poucas nuvensa uma altura de 4100 ft

METAR: NWWW 171230Z AUTO 00000KT 9999 FEW041 19/16 Q1012 NOSIG

Hora: 00:13 (13:13 UTC)

Previsão

O boletim foi feito há 2 horas e 13 minutos, às 11:00 UTC
Previsão válida de 17 às 12 UTC a 18 às 12 UTC
Vento 6 kt de sudeste
Visibilidade 10 km ou mais
Nuvens dispersasa uma altura de 6500 ft
Tornando-se
de 17 às 22 UTC a 18 às 01 UTC
Vento 12 kt de sul
Probabilidade 30% :
Temporariamente
de 18 às 03 UTC a 18 às 06 UTC
Poucas nuvensa uma altura de 3000 ft, Cumulus congestus.
aguaceiros de chuva

TAF: NWWW 171100Z 1712/1812 13006KT 9999 SCT065 BECMG 1722/1801 19012KT PROB30 TEMPO 1803/1806 SHRA FEW030TCU

Observações e previsões do tempo de mais de 4000 aeroportos (mensagens METAR e TAF).

As estações disponíveis são os pontos amarelos e vermelhos sobre o mapa.

Mova o rato sobre o mapa para ver o nome da estação.

Depois clique no ponto para visualizar as observações e previsões meteorológicas.

Para alterar o mapa : clique nos botões verdes com uma cruz preta para aumentar o zoom; no botão verde com uma pitada de zoom; ou nas setas verdes para mapas adjacentes.


METAR-TAF: